Thunder radar more information blitzortung!


Radar de pluja more information rain snow radar


Visita la nostra xarxa de llocs de meteo:

Template documentation
and downloads

And another site



No particular awareness of the weather is required.    There are no Weather-warnings

Pagina Historial Weather Underground text

Diari Resum January 30, 2018 Unitats:  Tant    Imperial   Mètric
« Previous Dia
SegĂźent Dia »
Diari Setmana Mensual Anual Personalitzada
  Maxima: Minima: Media:
Temperatura: TemperatureC °F /  -17.8 °C 2.8 °F /  -16.2 °C 10 °F /  -12.2 °C
Punt de rosada: DewpointC °F /  -17.8 °C -0.5 °F /  -18.1 °C 3.9 °F /  -15.6 °C
Humitat: Humidity % 53 % 66 %
Wind Speed: WindSpeedKMH mph /  0 km/h - 3.5 mph /  5.6 km/h
RĂ fegues de vent: WindSpeedGustKMH mph /  0 km/h - -
Vent:- - NE
Pression baro: PressurehPa in /  0 hPa 1026.0 in /  34740.4 hPa -
Precipitacions: 0.0 in /  0 mm    
Historical Graphs
 
 
Dades de taula per January 30, 2018
Temps Temperatura Punt de rosada Pression baro Vent Wind Speed RĂ fegues de vent Humitat Rainfall Rate (Hourly)
TemperatureC °F /  -17.8 °C DewpointC °F /  -17.8 °C PressurehPa in /  0 hPa Calm     Humidity % HourlyPrecipMM in /  0 mm
00:02 7.5 °F /  -13.6 °C 1.6 °F /  -16.9 °C 1033.7 in /  35001.1 hPa North 3.2 mph /  5.1 km/h 3.2 mph /  5.1 km/h 66 % 0.0 in /  0 mm
00:05 3.8 °F /  -15.7 °C 0.1 °F /  -17.7 °C 1032.1 in /  34946.9 hPa North 1.6 mph /  2.6 km/h 3.2 mph /  5.1 km/h 77 % 0.0 in /  0 mm
00:07 6.9 °F /  -13.9 °C 1.0 °F /  -17.2 °C 1033.7 in /  35001.1 hPa North 3.7 mph /  6 km/h 3.7 mph /  6 km/h 66 % 0.0 in /  0 mm
00:12 6.8 °F /  -14 °C 1.1 °F /  -17.2 °C 1033.7 in /  35001.1 hPa North 2.3 mph /  3.7 km/h 2.3 mph /  3.7 km/h 67 % 0.0 in /  0 mm
00:15 3.8 °F /  -15.7 °C 0.1 °F /  -17.7 °C 1032.1 in /  34946.9 hPa North 1.6 mph /  2.6 km/h 1.6 mph /  2.6 km/h 77 % 0.0 in /  0 mm
00:17 6.7 °F /  -14.1 °C 1.0 °F /  -17.2 °C 1033.7 in /  35001.1 hPa Calm     67 % 0.0 in /  0 mm
00:22 6.7 °F /  -14.1 °C 1.2 °F /  -17.1 °C 1033.7 in /  35001.1 hPa North 3.9 mph /  6.3 km/h 3.9 mph /  6.3 km/h 68 % 0.0 in /  0 mm
00:25 3.8 °F /  -15.7 °C 0.3 °F /  -17.6 °C 1032.1 in /  34946.9 hPa North 3.2 mph /  5.1 km/h 3.2 mph /  5.1 km/h 78 % 0.0 in /  0 mm
00:27 6.4 °F /  -14.2 °C 0.7 °F /  -17.4 °C 1033.7 in /  35001.1 hPa North 5.6 mph /  9 km/h 5.6 mph /  9 km/h 67 % 0.0 in /  0 mm
00:32 6.3 °F /  -14.3 °C 0.6 °F /  -17.4 °C 1033.7 in /  35001.1 hPa North 3.7 mph /  6 km/h 3.7 mph /  6 km/h 67 % 0.0 in /  0 mm
00:35 3.5 °F /  -15.8 °C -0.2 °F /  -17.9 °C 1032.1 in /  34946.9 hPa North 1.6 mph /  2.6 km/h 3.2 mph /  5.1 km/h 77 % 0.0 in /  0 mm
00:37 6.3 °F /  -14.3 °C 0.8 °F /  -17.3 °C 1033.7 in /  35001.1 hPa North 3.5 mph /  5.6 km/h 3.5 mph /  5.6 km/h 68 % 0.0 in /  0 mm
00:45 3.4 °F /  -15.9 °C -0.3 °F /  -17.9 °C 1032.1 in /  34946.9 hPa Calm   3.2 mph /  5.1 km/h 77 % 0.0 in /  0 mm
00:55 3.7 °F /  -15.7 °C 0.1 °F /  -17.7 °C 1032.1 in /  34946.9 hPa North 3.2 mph /  5.1 km/h 4.8 mph /  7.7 km/h 77 % 0.0 in /  0 mm
01:05 3.6 °F /  -15.8 °C 0.1 °F /  -17.7 °C 1032.1 in /  34946.9 hPa North 1.6 mph /  2.6 km/h 1.6 mph /  2.6 km/h 78 % 0.0 in /  0 mm
01:15 3.6 °F /  -15.8 °C 0.1 °F /  -17.7 °C 1032.1 in /  34946.9 hPa Calm   4.8 mph /  7.7 km/h 78 % 0.0 in /  0 mm
01:35 3.5 °F /  -15.8 °C 0.0 °F /  -17.8 °C 1032.1 in /  34946.9 hPa Calm   1.6 mph /  2.6 km/h 78 % 0.0 in /  0 mm
01:45 3.5 °F /  -15.8 °C 0.0 °F /  -17.8 °C 1032.1 in /  34946.9 hPa Calm   1.6 mph /  2.6 km/h 78 % 0.0 in /  0 mm
01:55 3.6 °F /  -15.8 °C 0.1 °F /  -17.7 °C 1032.1 in /  34946.9 hPa North 1.6 mph /  2.6 km/h 3.2 mph /  5.1 km/h 78 % 0.0 in /  0 mm
02:05 3.6 °F /  -15.8 °C 0.3 °F /  -17.6 °C 1032.1 in /  34946.9 hPa Calm   1.6 mph /  2.6 km/h 79 % 0.0 in /  0 mm
02:15 3.5 °F /  -15.8 °C 0.2 °F /  -17.7 °C 1032.1 in /  34946.9 hPa North 1.6 mph /  2.6 km/h 1.6 mph /  2.6 km/h 79 % 0.0 in /  0 mm
02:25 3.5 °F /  -15.8 °C 0.2 °F /  -17.7 °C 1032.1 in /  34946.9 hPa North 1.6 mph /  2.6 km/h 1.6 mph /  2.6 km/h 79 % 0.0 in /  0 mm
02:35 3.6 °F /  -15.8 °C 0.3 °F /  -17.6 °C 1032.1 in /  34946.9 hPa Calm   3.2 mph /  5.1 km/h 79 % 0.0 in /  0 mm
02:45 4.0 °F /  -15.6 °C 0.7 °F /  -17.4 °C 1032.1 in /  34946.9 hPa Calm   3.2 mph /  5.1 km/h 79 % 0.0 in /  0 mm
02:55 4.5 °F /  -15.3 °C 1.3 °F /  -17.1 °C 1032.1 in /  34946.9 hPa North 1.6 mph /  2.6 km/h 1.6 mph /  2.6 km/h 80 % 0.0 in /  0 mm
03:15 4.7 °F /  -15.2 °C 1.4 °F /  -17 °C 1032.1 in /  34946.9 hPa Calm   3.2 mph /  5.1 km/h 79 % 0.0 in /  0 mm
03:25 5.8 °F /  -14.6 °C 2.6 °F /  -16.3 °C 1032.1 in /  34946.9 hPa Calm     80 % 0.0 in /  0 mm
03:35 6.0 °F /  -14.4 °C 2.4 °F /  -16.4 °C 1032.1 in /  34946.9 hPa North 1.6 mph /  2.6 km/h 3.2 mph /  5.1 km/h 78 % 0.0 in /  0 mm
03:45 6.4 °F /  -14.2 °C 2.7 °F /  -16.3 °C 1032.1 in /  34946.9 hPa North 1.6 mph /  2.6 km/h 1.6 mph /  2.6 km/h 77 % 0.0 in /  0 mm
04:05 7.4 °F /  -13.7 °C 3.3 °F /  -15.9 °C 1032.1 in /  34946.9 hPa Calm   3.2 mph /  5.1 km/h 75 % 0.0 in /  0 mm
04:15 7.2 °F /  -13.8 °C 2.9 °F /  -16.2 °C 1032.1 in /  34946.9 hPa Calm   3.2 mph /  5.1 km/h 74 % 0.0 in /  0 mm
04:25 7.6 °F /  -13.6 °C 3.3 °F /  -15.9 °C 1032.7 in /  34967.2 hPa North 1.6 mph /  2.6 km/h 3.2 mph /  5.1 km/h 74 % 0.0 in /  0 mm
04:35 8.3 °F /  -13.2 °C 3.7 °F /  -15.7 °C 1032.1 in /  34946.9 hPa Calm   1.6 mph /  2.6 km/h 73 % 0.0 in /  0 mm
10:40 8.4 °F /  -13.1 °C 3.7 °F /  -15.7 °C 1032.1 in /  34946.9 hPa North 3.7 mph /  6 km/h 3.7 mph /  6 km/h 72 % 0.0 in /  0 mm
10:45 8.8 °F /  -12.9 °C 4.0 °F /  -15.6 °C 1032.1 in /  34946.9 hPa North 3.7 mph /  6 km/h 3.7 mph /  6 km/h 72 % 0.0 in /  0 mm
10:50 9.1 °F /  -12.7 °C 4.1 °F /  -15.5 °C 1032.1 in /  34946.9 hPa North 3.7 mph /  6 km/h 3.7 mph /  6 km/h 71 % 0.0 in /  0 mm
10:55 9.1 °F /  -12.7 °C 3.9 °F /  -15.6 °C 1032.1 in /  34946.9 hPa ENE 5.6 mph /  9 km/h 5.6 mph /  9 km/h 70 % 0.0 in /  0 mm
11:00 9.1 °F /  -12.7 °C 3.7 °F /  -15.7 °C 1032.7 in /  34967.2 hPa ENE 7.4 mph /  11.9 km/h 7.4 mph /  11.9 km/h 69 % 0.0 in /  0 mm
11:05 9.1 °F /  -12.7 °C 3.9 °F /  -15.6 °C 1032.7 in /  34967.2 hPa NNE 5.6 mph /  9 km/h 5.6 mph /  9 km/h 70 % 0.0 in /  0 mm
11:10 9.3 °F /  -12.6 °C 3.9 °F /  -15.6 °C 1032.7 in /  34967.2 hPa ENE 7.4 mph /  11.9 km/h 7.4 mph /  11.9 km/h 69 % 0.0 in /  0 mm
11:15 9.2 °F /  -12.7 °C 3.6 °F /  -15.8 °C 1032.1 in /  34946.9 hPa NE 7.4 mph /  11.9 km/h 7.4 mph /  11.9 km/h 68 % 0.0 in /  0 mm
11:20 9.4 °F /  -12.6 °C 3.8 °F /  -15.7 °C 1032.1 in /  34946.9 hPa ENE 7.4 mph /  11.9 km/h 7.4 mph /  11.9 km/h 68 % 0.0 in /  0 mm
11:25 9.8 °F /  -12.3 °C 4.2 °F /  -15.4 °C 1032.1 in /  34946.9 hPa NNE 6.1 mph /  9.8 km/h 6.1 mph /  9.8 km/h 68 % 0.0 in /  0 mm
11:30 9.9 °F /  -12.3 °C 4.1 °F /  -15.5 °C 1032.1 in /  34946.9 hPa NNE 7.4 mph /  11.9 km/h 7.4 mph /  11.9 km/h 67 % 0.0 in /  0 mm
11:35 10.3 °F /  -12.1 °C 4.4 °F /  -15.3 °C 1032.1 in /  34946.9 hPa NE 7.4 mph /  11.9 km/h 7.4 mph /  11.9 km/h 67 % 0.0 in /  0 mm
11:40 10.6 °F /  -11.9 °C 4.7 °F /  -15.2 °C 1032.1 in /  34946.9 hPa ENE 7.4 mph /  11.9 km/h 7.4 mph /  11.9 km/h 67 % 0.0 in /  0 mm
11:45 10.7 °F /  -11.8 °C 4.6 °F /  -15.2 °C 1030.7 in /  34899.5 hPa NE 5.6 mph /  9 km/h 5.6 mph /  9 km/h 66 % 0.0 in /  0 mm
11:50 10.9 °F /  -11.7 °C 4.6 °F /  -15.2 °C 1030.7 in /  34899.5 hPa ENE 5.8 mph /  9.3 km/h 6.1 mph /  9.8 km/h 65 % 0.0 in /  0 mm
11:55 11.1 °F /  -11.6 °C 4.8 °F /  -15.1 °C 1030.7 in /  34899.5 hPa NE 7.4 mph /  11.9 km/h 7.4 mph /  11.9 km/h 65 % 0.0 in /  0 mm
12:00 11.2 °F /  -11.6 °C 4.6 °F /  -15.2 °C 1030.7 in /  34899.5 hPa NE 9.3 mph /  15 km/h 9.3 mph /  15 km/h 64 % 0.0 in /  0 mm
12:05 11.7 °F /  -11.3 °C 5.3 °F /  -14.8 °C 1030.7 in /  34899.5 hPa ENE 3.7 mph /  6 km/h 3.7 mph /  6 km/h 65 % 0.0 in /  0 mm
12:10 11.8 °F /  -11.2 °C 5.2 °F /  -14.9 °C 1030.7 in /  34899.5 hPa NNE 5.8 mph /  9.3 km/h 5.8 mph /  9.3 km/h 64 % 0.0 in /  0 mm
12:15 11.8 °F /  -11.2 °C 5.2 °F /  -14.9 °C 1032.1 in /  34946.9 hPa NNE 5.6 mph /  9 km/h 5.6 mph /  9 km/h 64 % 0.0 in /  0 mm
12:20 12.1 °F /  -11.1 °C 5.5 °F /  -14.7 °C 1032.1 in /  34946.9 hPa North 3.7 mph /  6 km/h 3.7 mph /  6 km/h 64 % 0.0 in /  0 mm
12:25 12.0 °F /  -11.1 °C 5.2 °F /  -14.9 °C 1032.1 in /  34946.9 hPa ENE 3.7 mph /  6 km/h 3.7 mph /  6 km/h 63 % 0.0 in /  0 mm
12:30 12.5 °F /  -10.8 °C 5.7 °F /  -14.6 °C 1032.1 in /  34946.9 hPa ENE 3.2 mph /  5.1 km/h   63 % 0.0 in /  0 mm
12:35 12.6 °F /  -10.8 °C 5.7 °F /  -14.6 °C 1032.1 in /  34946.9 hPa ENE 4.7 mph /  7.6 km/h 4.7 mph /  7.6 km/h 63 % 0.0 in /  0 mm
12:40 12.5 °F /  -10.8 °C 5.4 °F /  -14.8 °C 1032.1 in /  34946.9 hPa ENE 3.7 mph /  6 km/h 3.7 mph /  6 km/h 62 % 0.0 in /  0 mm
12:45 12.8 °F /  -10.7 °C 5.9 °F /  -14.5 °C 1030.7 in /  34899.5 hPa ENE 3.9 mph /  6.3 km/h 3.9 mph /  6.3 km/h 63 % 0.0 in /  0 mm
12:50 12.8 °F /  -10.7 °C 5.7 °F /  -14.6 °C 1030.7 in /  34899.5 hPa ENE 3.7 mph /  6 km/h 3.7 mph /  6 km/h 62 % 0.0 in /  0 mm
12:55 13.1 °F /  -10.5 °C 6.0 °F /  -14.4 °C 1030.7 in /  34899.5 hPa ENE 5.6 mph /  9 km/h 5.6 mph /  9 km/h 62 % 0.0 in /  0 mm
13:00 13.1 °F /  -10.5 °C 5.7 °F /  -14.6 °C 1030.7 in /  34899.5 hPa ENE 5.6 mph /  9 km/h 5.6 mph /  9 km/h 61 % 0.0 in /  0 mm
13:05 13.4 °F /  -10.3 °C 6.0 °F /  -14.4 °C 1030.7 in /  34899.5 hPa ENE 5.6 mph /  9 km/h 5.6 mph /  9 km/h 61 % 0.0 in /  0 mm
13:10 13.4 °F /  -10.3 °C 6.0 °F /  -14.4 °C 1030.7 in /  34899.5 hPa ENE 5.8 mph /  9.3 km/h 5.8 mph /  9.3 km/h 61 % 0.0 in /  0 mm
13:15 13.6 °F /  -10.2 °C 6.2 °F /  -14.3 °C 1030.7 in /  34899.5 hPa ENE 5.6 mph /  9 km/h 5.6 mph /  9 km/h 61 % 0.0 in /  0 mm
13:20 13.8 °F /  -10.1 °C 6.4 °F /  -14.2 °C 1030.7 in /  34899.5 hPa NE 7.4 mph /  11.9 km/h 7.4 mph /  11.9 km/h 61 % 0.0 in /  0 mm
13:25 14.0 °F /  -10 °C 6.6 °F /  -14.1 °C 1030.7 in /  34899.5 hPa NE 6.1 mph /  9.8 km/h 6.1 mph /  9.8 km/h 61 % 0.0 in /  0 mm
13:30 13.9 °F /  -10.1 °C 6.3 °F /  -14.3 °C 1030.0 in /  34875.8 hPa NE 4.2 mph /  6.8 km/h 4.2 mph /  6.8 km/h 60 % 0.0 in /  0 mm
13:35 14.3 °F /  -9.8 °C 6.6 °F /  -14.1 °C 1030.0 in /  34875.8 hPa NE 2.6 mph /  4.2 km/h 2.6 mph /  4.2 km/h 60 % 0.0 in /  0 mm
13:40 14.5 °F /  -9.7 °C 6.8 °F /  -14 °C 1030.0 in /  34875.8 hPa NE 5.6 mph /  9 km/h 5.6 mph /  9 km/h 60 % 0.0 in /  0 mm
13:45 14.6 °F /  -9.7 °C 6.4 °F /  -14.2 °C 1030.0 in /  34875.8 hPa NE 9.3 mph /  15 km/h 9.3 mph /  15 km/h 58 % 0.0 in /  0 mm
13:50 14.8 °F /  -9.6 °C 6.6 °F /  -14.1 °C 1030.0 in /  34875.8 hPa NE 5.6 mph /  9 km/h 5.6 mph /  9 km/h 58 % 0.0 in /  0 mm
13:55 14.8 °F /  -9.6 °C 6.3 °F /  -14.3 °C 1030.0 in /  34875.8 hPa NE 5.6 mph /  9 km/h 5.6 mph /  9 km/h 57 % 0.0 in /  0 mm
14:00 14.7 °F /  -9.6 °C 6.3 °F /  -14.3 °C 1030.0 in /  34875.8 hPa NE 7.4 mph /  11.9 km/h 7.4 mph /  11.9 km/h 57 % 0.0 in /  0 mm
14:05 14.8 °F /  -9.6 °C 6.6 °F /  -14.1 °C 1030.0 in /  34875.8 hPa NE 5.6 mph /  9 km/h 5.6 mph /  9 km/h 58 % 0.0 in /  0 mm
14:10 14.8 °F /  -9.6 °C 6.3 °F /  -14.3 °C 1030.0 in /  34875.8 hPa NE 7.4 mph /  11.9 km/h 7.4 mph /  11.9 km/h 57 % 0.0 in /  0 mm
14:15 15.0 °F /  -9.4 °C 6.8 °F /  -14 °C 1030.0 in /  34875.8 hPa NE 3.9 mph /  6.3 km/h 3.9 mph /  6.3 km/h 58 % 0.0 in /  0 mm
14:20 15.1 °F /  -9.4 °C 6.9 °F /  -13.9 °C 1030.0 in /  34875.8 hPa NE 3.7 mph /  6 km/h 3.7 mph /  6 km/h 58 % 0.0 in /  0 mm
14:25 15.3 °F /  -9.3 °C 7.1 °F /  -13.8 °C 1030.0 in /  34875.8 hPa NE 7.2 mph /  11.6 km/h 7.2 mph /  11.6 km/h 58 % 0.0 in /  0 mm
14:30 15.6 °F /  -9.1 °C 7.3 °F /  -13.7 °C 1030.0 in /  34875.8 hPa NE 3.7 mph /  6 km/h 3.7 mph /  6 km/h 58 % 0.0 in /  0 mm
14:35 16.0 °F /  -8.9 °C 7.7 °F /  -13.5 °C 1030.0 in /  34875.8 hPa NE 3.7 mph /  6 km/h 3.7 mph /  6 km/h 58 % 0.0 in /  0 mm
14:40 15.9 °F /  -8.9 °C 7.4 °F /  -13.7 °C 1030.0 in /  34875.8 hPa NE 5.6 mph /  9 km/h 5.6 mph /  9 km/h 57 % 0.0 in /  0 mm
14:45 16.0 °F /  -8.9 °C 7.7 °F /  -13.5 °C 1030.0 in /  34875.8 hPa NE 3.7 mph /  6 km/h 3.7 mph /  6 km/h 58 % 0.0 in /  0 mm
14:50 16.2 °F /  -8.8 °C 8.2 °F /  -13.2 °C 1030.0 in /  34875.8 hPa NE 9.3 mph /  15 km/h 9.3 mph /  15 km/h 59 % 0.0 in /  0 mm
14:55 16.5 °F /  -8.6 °C 8.2 °F /  -13.2 °C 1030.0 in /  34875.8 hPa NE 9.3 mph /  15 km/h 9.3 mph /  15 km/h 58 % 0.0 in /  0 mm
15:00 16.4 °F /  -8.7 °C 7.8 °F /  -13.4 °C 1030.0 in /  34875.8 hPa NE 9.3 mph /  15 km/h 9.3 mph /  15 km/h 57 % 0.0 in /  0 mm
15:05 16.1 °F /  -8.8 °C 7.3 °F /  -13.7 °C 1030.0 in /  34875.8 hPa NE 11.1 mph /  17.9 km/h 11.1 mph /  17.9 km/h 56 % 0.0 in /  0 mm
15:10 16.2 °F /  -8.8 °C 7.4 °F /  -13.7 °C 1030.0 in /  34875.8 hPa NE 7.4 mph /  11.9 km/h 7.4 mph /  11.9 km/h 56 % 0.0 in /  0 mm
15:15 16.3 °F /  -8.7 °C 7.5 °F /  -13.6 °C 1030.0 in /  34875.8 hPa NE 9.3 mph /  15 km/h 9.3 mph /  15 km/h 56 % 0.0 in /  0 mm
15:20 16.5 °F /  -8.6 °C 7.7 °F /  -13.5 °C 1030.0 in /  34875.8 hPa NE 5.6 mph /  9 km/h 5.6 mph /  9 km/h 56 % 0.0 in /  0 mm
15:25 16.6 °F /  -8.6 °C 7.8 °F /  -13.4 °C 1030.0 in /  34875.8 hPa NE 11.9 mph /  19.2 km/h 11.9 mph /  19.2 km/h 56 % 0.0 in /  0 mm
15:30 16.6 °F /  -8.6 °C 7.5 °F /  -13.6 °C 1030.0 in /  34875.8 hPa NE 9.3 mph /  15 km/h 9.3 mph /  15 km/h 55 % 0.0 in /  0 mm
15:35 16.7 °F /  -8.5 °C 7.3 °F /  -13.7 °C 1030.0 in /  34875.8 hPa NE 6.4 mph /  10.3 km/h 6.4 mph /  10.3 km/h 54 % 0.0 in /  0 mm
15:40 16.7 °F /  -8.5 °C 7.3 °F /  -13.7 °C 1030.0 in /  34875.8 hPa NE 9.3 mph /  15 km/h 9.3 mph /  15 km/h 54 % 0.0 in /  0 mm
15:45 16.6 °F /  -8.6 °C 7.2 °F /  -13.8 °C 1030.0 in /  34875.8 hPa NE 7.4 mph /  11.9 km/h 7.4 mph /  11.9 km/h 54 % 0.0 in /  0 mm
15:50 16.7 °F /  -8.5 °C 7.3 °F /  -13.7 °C 1030.0 in /  34875.8 hPa NE 9.3 mph /  15 km/h 9.3 mph /  15 km/h 54 % 0.0 in /  0 mm
15:55 17.0 °F /  -8.3 °C 7.3 °F /  -13.7 °C 1030.0 in /  34875.8 hPa NE 3.9 mph /  6.3 km/h 3.9 mph /  6.3 km/h 53 % 0.0 in /  0 mm
16:00 17.1 °F /  -8.3 °C 7.4 °F /  -13.7 °C 1030.0 in /  34875.8 hPa NE 5.6 mph /  9 km/h 5.6 mph /  9 km/h 53 % 0.0 in /  0 mm
16:05 16.8 °F /  -8.4 °C 7.4 °F /  -13.7 °C 1030.0 in /  34875.8 hPa NE 7.4 mph /  11.9 km/h 7.4 mph /  11.9 km/h 54 % 0.0 in /  0 mm
16:10 16.8 °F /  -8.4 °C 7.4 °F /  -13.7 °C 1030.0 in /  34875.8 hPa NE 7.4 mph /  11.9 km/h 7.4 mph /  11.9 km/h 54 % 0.0 in /  0 mm
16:15 16.7 °F /  -8.5 °C 7.3 °F /  -13.7 °C 1030.0 in /  34875.8 hPa NE 7.4 mph /  11.9 km/h 7.4 mph /  11.9 km/h 54 % 0.0 in /  0 mm
16:20 16.7 °F /  -8.5 °C 7.3 °F /  -13.7 °C 1030.0 in /  34875.8 hPa NE 4.7 mph /  7.6 km/h 4.7 mph /  7.6 km/h 54 % 0.0 in /  0 mm
16:25 16.5 °F /  -8.6 °C 7.2 °F /  -13.8 °C 1030.0 in /  34875.8 hPa NE 9.3 mph /  15 km/h 9.3 mph /  15 km/h 54 % 0.0 in /  0 mm
16:30 16.3 °F /  -8.7 °C 6.9 °F /  -13.9 °C 1030.0 in /  34875.8 hPa NE 11.1 mph /  17.9 km/h 11.1 mph /  17.9 km/h 54 % 0.0 in /  0 mm
16:35 16.2 °F /  -8.8 °C 6.9 °F /  -13.9 °C 1030.0 in /  34875.8 hPa NE 7.4 mph /  11.9 km/h 7.4 mph /  11.9 km/h 54 % 0.0 in /  0 mm
16:40 16.0 °F /  -8.9 °C 6.7 °F /  -14.1 °C 1030.0 in /  34875.8 hPa NE 9.3 mph /  15 km/h 9.3 mph /  15 km/h 54 % 0.0 in /  0 mm
16:45 15.9 °F /  -8.9 °C 6.6 °F /  -14.1 °C 1030.0 in /  34875.8 hPa NE 9.3 mph /  15 km/h 9.3 mph /  15 km/h 54 % 0.0 in /  0 mm
16:50 15.6 °F /  -9.1 °C 6.3 °F /  -14.3 °C 1030.0 in /  34875.8 hPa NE 6.9 mph /  11.1 km/h 6.9 mph /  11.1 km/h 54 % 0.0 in /  0 mm
16:55 15.5 °F /  -9.2 °C 6.5 °F /  -14.2 °C 1030.0 in /  34875.8 hPa NE 9.3 mph /  15 km/h 9.3 mph /  15 km/h 55 % 0.0 in /  0 mm
17:00 15.4 °F /  -9.2 °C 6.4 °F /  -14.2 °C 1030.0 in /  34875.8 hPa NE 7.4 mph /  11.9 km/h 7.4 mph /  11.9 km/h 55 % 0.0 in /  0 mm
17:05 15.3 °F /  -9.3 °C 6.3 °F /  -14.3 °C 1030.0 in /  34875.8 hPa NE 5.8 mph /  9.3 km/h 6.1 mph /  9.8 km/h 55 % 0.0 in /  0 mm
17:07 15.3 °F /  -9.3 °C 6.3 °F /  -14.3 °C 1030.0 in /  34875.8 hPa NE 9.3 mph /  15 km/h 9.3 mph /  15 km/h 55 % 0.0 in /  0 mm
17:12 15.1 °F /  -9.4 °C 6.1 °F /  -14.4 °C 1030.0 in /  34875.8 hPa NE 9.3 mph /  15 km/h 9.3 mph /  15 km/h 55 % 0.0 in /  0 mm
17:17 14.9 °F /  -9.5 °C 6.2 °F /  -14.3 °C 1029.0 in /  34841.9 hPa NE 7.4 mph /  11.9 km/h 7.4 mph /  11.9 km/h 56 % 0.0 in /  0 mm
17:22 14.8 °F /  -9.6 °C 6.1 °F /  -14.4 °C 1029.0 in /  34841.9 hPa NE 9.0 mph /  14.5 km/h 9.0 mph /  14.5 km/h 56 % 0.0 in /  0 mm
17:27 14.6 °F /  -9.7 °C 5.9 °F /  -14.5 °C 1029.0 in /  34841.9 hPa NE 5.0 mph /  8 km/h 5.8 mph /  9.3 km/h 56 % 0.0 in /  0 mm
17:32 14.5 °F /  -9.7 °C 5.8 °F /  -14.6 °C 1029.0 in /  34841.9 hPa NE 5.6 mph /  9 km/h 5.6 mph /  9 km/h 56 % 0.0 in /  0 mm
17:37 14.2 °F /  -9.9 °C 5.8 °F /  -14.6 °C 1029.0 in /  34841.9 hPa NE 5.6 mph /  9 km/h 5.6 mph /  9 km/h 57 % 0.0 in /  0 mm
17:42 14.0 °F /  -10 °C 5.6 °F /  -14.7 °C 1029.0 in /  34841.9 hPa NE 7.4 mph /  11.9 km/h 7.4 mph /  11.9 km/h 57 % 0.0 in /  0 mm
17:47 13.8 °F /  -10.1 °C 5.4 °F /  -14.8 °C 1029.0 in /  34841.9 hPa NE 5.6 mph /  9 km/h 5.6 mph /  9 km/h 57 % 0.0 in /  0 mm
17:52 13.6 °F /  -10.2 °C 5.5 °F /  -14.7 °C 1029.0 in /  34841.9 hPa NE 5.6 mph /  9 km/h 5.6 mph /  9 km/h 58 % 0.0 in /  0 mm
17:57 13.4 °F /  -10.3 °C 5.3 °F /  -14.8 °C 1029.0 in /  34841.9 hPa NE 3.7 mph /  6 km/h 3.7 mph /  6 km/h 58 % 0.0 in /  0 mm
18:02 13.1 °F /  -10.5 °C 5.3 °F /  -14.8 °C 1029.0 in /  34841.9 hPa NE 3.7 mph /  6 km/h 3.7 mph /  6 km/h 59 % 0.0 in /  0 mm
18:07 12.9 °F /  -10.6 °C 5.1 °F /  -14.9 °C 1029.0 in /  34841.9 hPa NE 3.7 mph /  6 km/h 3.7 mph /  6 km/h 59 % 0.0 in /  0 mm
18:12 12.8 °F /  -10.7 °C 5.2 °F /  -14.9 °C 1029.0 in /  34841.9 hPa NE 3.7 mph /  6 km/h 3.9 mph /  6.3 km/h 60 % 0.0 in /  0 mm
18:17 12.6 °F /  -10.8 °C 5.1 °F /  -14.9 °C 1030.0 in /  34875.8 hPa NE 7.4 mph /  11.9 km/h 7.4 mph /  11.9 km/h 60 % 0.0 in /  0 mm
18:22 12.5 °F /  -10.8 °C 4.9 °F /  -15.1 °C 1030.0 in /  34875.8 hPa NE 3.7 mph /  6 km/h 3.7 mph /  6 km/h 60 % 0.0 in /  0 mm
18:27 12.3 °F /  -10.9 °C 5.0 °F /  -15 °C 1030.0 in /  34875.8 hPa NE 3.7 mph /  6 km/h 3.7 mph /  6 km/h 61 % 0.0 in /  0 mm
18:32 12.1 °F /  -11.1 °C 4.8 °F /  -15.1 °C 1030.0 in /  34875.8 hPa NE 3.7 mph /  6 km/h 3.7 mph /  6 km/h 61 % 0.0 in /  0 mm
18:37 12.0 °F /  -11.1 °C 4.7 °F /  -15.2 °C 1030.0 in /  34875.8 hPa NE 3.9 mph /  6.3 km/h 3.9 mph /  6.3 km/h 61 % 0.0 in /  0 mm
18:42 11.9 °F /  -11.2 °C 4.8 °F /  -15.1 °C 1030.0 in /  34875.8 hPa NE 3.7 mph /  6 km/h 3.7 mph /  6 km/h 62 % 0.0 in /  0 mm
18:47 11.8 °F /  -11.2 °C 4.7 °F /  -15.2 °C 1030.0 in /  34875.8 hPa NE 3.9 mph /  6.3 km/h 3.9 mph /  6.3 km/h 62 % 0.0 in /  0 mm
18:52 11.6 °F /  -11.3 °C 4.8 °F /  -15.1 °C 1030.0 in /  34875.8 hPa NE 1.9 mph /  3.1 km/h   63 % 0.0 in /  0 mm
18:57 11.5 °F /  -11.4 °C 4.7 °F /  -15.2 °C 1030.0 in /  34875.8 hPa Calm     63 % 0.0 in /  0 mm
19:02 11.4 °F /  -11.4 °C 4.6 °F /  -15.2 °C 1029.0 in /  34841.9 hPa NE 1.9 mph /  3.1 km/h   63 % 0.0 in /  0 mm
19:07 11.3 °F /  -11.5 °C 4.5 °F /  -15.3 °C 1029.0 in /  34841.9 hPa NE 3.7 mph /  6 km/h   63 % 0.0 in /  0 mm
19:12 11.3 °F /  -11.5 °C 4.5 °F /  -15.3 °C 1029.0 in /  34841.9 hPa NE 3.7 mph /  6 km/h 3.7 mph /  6 km/h 63 % 0.0 in /  0 mm
19:17 11.3 °F /  -11.5 °C 4.5 °F /  -15.3 °C 1030.0 in /  34875.8 hPa NE 3.7 mph /  6 km/h 3.7 mph /  6 km/h 63 % 0.0 in /  0 mm
19:22 11.2 °F /  -11.6 °C 4.4 °F /  -15.3 °C 1030.0 in /  34875.8 hPa NE 2.6 mph /  4.2 km/h 2.6 mph /  4.2 km/h 63 % 0.0 in /  0 mm
19:27 11.1 °F /  -11.6 °C 4.6 °F /  -15.2 °C 1030.0 in /  34875.8 hPa NE 3.7 mph /  6 km/h 3.7 mph /  6 km/h 64 % 0.0 in /  0 mm
19:32 11.1 °F /  -11.6 °C 4.6 °F /  -15.2 °C 1030.0 in /  34875.8 hPa NE 3.7 mph /  6 km/h   64 % 0.0 in /  0 mm
19:37 11.0 °F /  -11.7 °C 4.4 °F /  -15.3 °C 1030.0 in /  34875.8 hPa NE 2.3 mph /  3.7 km/h 2.3 mph /  3.7 km/h 64 % 0.0 in /  0 mm
19:42 11.0 °F /  -11.7 °C 4.4 °F /  -15.3 °C 1030.0 in /  34875.8 hPa Calm     64 % 0.0 in /  0 mm
19:47 10.9 °F /  -11.7 °C 4.6 °F /  -15.2 °C 1030.0 in /  34875.8 hPa NE 2.6 mph /  4.2 km/h 2.6 mph /  4.2 km/h 65 % 0.0 in /  0 mm
19:52 10.8 °F /  -11.8 °C 4.5 °F /  -15.3 °C 1030.0 in /  34875.8 hPa Calm     65 % 0.0 in /  0 mm
19:57 10.7 °F /  -11.8 °C 4.4 °F /  -15.3 °C 1030.0 in /  34875.8 hPa NE 1.9 mph /  3.1 km/h   65 % 0.0 in /  0 mm
20:02 10.6 °F /  -11.9 °C 4.1 °F /  -15.5 °C 1030.0 in /  34875.8 hPa NE 1.9 mph /  3.1 km/h 1.9 mph /  3.1 km/h 64 % 0.0 in /  0 mm
20:07 10.5 °F /  -11.9 °C 4.2 °F /  -15.4 °C 1030.0 in /  34875.8 hPa NE 1.9 mph /  3.1 km/h 1.9 mph /  3.1 km/h 65 % 0.0 in /  0 mm
20:12 10.4 °F /  -12 °C 4.1 °F /  -15.5 °C 1030.0 in /  34875.8 hPa Calm     65 % 0.0 in /  0 mm
20:17 10.2 °F /  -12.1 °C 3.9 °F /  -15.6 °C 1030.0 in /  34875.8 hPa Calm     65 % 0.0 in /  0 mm
20:22 10.0 °F /  -12.2 °C 3.9 °F /  -15.6 °C 1030.0 in /  34875.8 hPa Calm     66 % 0.0 in /  0 mm
20:27 9.8 °F /  -12.3 °C 3.7 °F /  -15.7 °C 1030.0 in /  34875.8 hPa NE 3.7 mph /  6 km/h   66 % 0.0 in /  0 mm
20:32 9.5 °F /  -12.5 °C 3.4 °F /  -15.9 °C 1030.0 in /  34875.8 hPa NE 2.6 mph /  4.2 km/h 2.6 mph /  4.2 km/h 66 % 0.0 in /  0 mm
20:35 4.6 °F /  -15.2 °C 1.3 °F /  -17.1 °C 1027.0 in /  34774.2 hPa Calm   3.2 mph /  5.1 km/h 79 % 0.0 in /  0 mm
20:37 9.4 °F /  -12.6 °C 3.6 °F /  -15.8 °C 1030.0 in /  34875.8 hPa NE 1.9 mph /  3.1 km/h 1.9 mph /  3.1 km/h 67 % 0.0 in /  0 mm
20:42 9.3 °F /  -12.6 °C 3.5 °F /  -15.8 °C 1030.0 in /  34875.8 hPa NE 2.3 mph /  3.7 km/h 2.3 mph /  3.7 km/h 67 % 0.0 in /  0 mm
20:45 4.5 °F /  -15.3 °C 1.2 °F /  -17.1 °C 1027.0 in /  34774.2 hPa Calm     79 % 0.0 in /  0 mm
20:47 9.3 °F /  -12.6 °C 3.5 °F /  -15.8 °C 1030.0 in /  34875.8 hPa NE 2.6 mph /  4.2 km/h 2.6 mph /  4.2 km/h 67 % 0.0 in /  0 mm
20:52 9.3 °F /  -12.6 °C 3.7 °F /  -15.7 °C 1030.0 in /  34875.8 hPa NE 1.9 mph /  3.1 km/h 1.9 mph /  3.1 km/h 68 % 0.0 in /  0 mm
20:55 4.3 °F /  -15.4 °C 1.0 °F /  -17.2 °C 1028.0 in /  34808.1 hPa Calm     79 % 0.0 in /  0 mm
20:57 9.2 °F /  -12.7 °C 3.6 °F /  -15.8 °C 1030.0 in /  34875.8 hPa NE 1.9 mph /  3.1 km/h 1.9 mph /  3.1 km/h 68 % 0.0 in /  0 mm
21:02 9.1 °F /  -12.7 °C 3.7 °F /  -15.7 °C 1030.0 in /  34875.8 hPa Calm     69 % 0.0 in /  0 mm
21:05 4.2 °F /  -15.4 °C 0.9 °F /  -17.3 °C 1028.0 in /  34808.1 hPa NE 1.6 mph /  2.6 km/h 3.2 mph /  5.1 km/h 79 % 0.0 in /  0 mm
21:07 9.0 °F /  -12.8 °C 3.6 °F /  -15.8 °C 1030.0 in /  34875.8 hPa Calm     69 % 0.0 in /  0 mm
21:12 9.0 °F /  -12.8 °C 3.6 °F /  -15.8 °C 1030.0 in /  34875.8 hPa Calm     69 % 0.0 in /  0 mm
21:15 4.2 °F /  -15.4 °C 0.9 °F /  -17.3 °C 1028.0 in /  34808.1 hPa Calm     79 % 0.0 in /  0 mm
21:17 8.8 °F /  -12.9 °C 3.4 °F /  -15.9 °C 1030.0 in /  34875.8 hPa Calm     69 % 0.0 in /  0 mm
21:22 8.7 °F /  -12.9 °C 3.3 °F /  -15.9 °C 1030.0 in /  34875.8 hPa Calm     69 % 0.0 in /  0 mm
21:25 4.3 °F /  -15.4 °C 1.0 °F /  -17.2 °C 1028.0 in /  34808.1 hPa Calm   3.2 mph /  5.1 km/h 79 % 0.0 in /  0 mm
21:27 8.6 °F /  -13 °C 3.2 °F /  -16 °C 1030.0 in /  34875.8 hPa NE 2.3 mph /  3.7 km/h 2.3 mph /  3.7 km/h 69 % 0.0 in /  0 mm
21:32 8.5 °F /  -13.1 °C 3.1 °F /  -16.1 °C 1030.0 in /  34875.8 hPa NE 1.9 mph /  3.1 km/h 1.9 mph /  3.1 km/h 69 % 0.0 in /  0 mm
21:35 4.3 °F /  -15.4 °C 1.0 °F /  -17.2 °C 1028.0 in /  34808.1 hPa NE 1.6 mph /  2.6 km/h 1.6 mph /  2.6 km/h 79 % 0.0 in /  0 mm
21:37 8.5 °F /  -13.1 °C 3.1 °F /  -16.1 °C 1030.0 in /  34875.8 hPa NE 1.9 mph /  3.1 km/h   69 % 0.0 in /  0 mm
21:42 8.4 °F /  -13.1 °C 3.2 °F /  -16 °C 1030.0 in /  34875.8 hPa Calm     70 % 0.0 in /  0 mm
21:45 4.2 °F /  -15.4 °C 0.9 °F /  -17.3 °C 1028.0 in /  34808.1 hPa NE 1.6 mph /  2.6 km/h 1.6 mph /  2.6 km/h 79 % 0.0 in /  0 mm
21:47 8.3 °F /  -13.2 °C 3.2 °F /  -16 °C 1030.0 in /  34875.8 hPa Calm     70 % 0.0 in /  0 mm
21:52 8.2 °F /  -13.2 °C 3.3 °F /  -15.9 °C 1030.0 in /  34875.8 hPa Calm     71 % 0.0 in /  0 mm
21:55 4.0 °F /  -15.6 °C 0.7 °F /  -17.4 °C 1028.0 in /  34808.1 hPa NE 1.6 mph /  2.6 km/h 1.6 mph /  2.6 km/h 79 % 0.0 in /  0 mm
21:57 8.2 °F /  -13.2 °C 3.3 °F /  -15.9 °C 1030.0 in /  34875.8 hPa Calm     71 % 0.0 in /  0 mm
22:02 8.1 °F /  -13.3 °C 3.2 °F /  -16 °C 1029.0 in /  34841.9 hPa Calm     71 % 0.0 in /  0 mm
22:05 3.9 °F /  -15.6 °C 0.6 °F /  -17.4 °C 1028.0 in /  34808.1 hPa NE 1.6 mph /  2.6 km/h 1.6 mph /  2.6 km/h 79 % 0.0 in /  0 mm
22:07 8.0 °F /  -13.3 °C 3.1 °F /  -16.1 °C 1029.0 in /  34841.9 hPa Calm     71 % 0.0 in /  0 mm
22:12 8.0 °F /  -13.3 °C 3.3 °F /  -15.9 °C 1029.0 in /  34841.9 hPa Calm     72 % 0.0 in /  0 mm
22:15 3.6 °F /  -15.8 °C 0.3 °F /  -17.6 °C 1028.0 in /  34808.1 hPa NE 1.6 mph /  2.6 km/h 4.8 mph /  7.7 km/h 79 % 0.0 in /  0 mm
22:17 8.0 °F /  -13.3 °C 3.3 °F /  -15.9 °C 1030.0 in /  34875.8 hPa Calm     72 % 0.0 in /  0 mm
22:22 7.9 °F /  -13.4 °C 3.2 °F /  -16 °C 1030.0 in /  34875.8 hPa Calm     72 % 0.0 in /  0 mm
22:25 3.4 °F /  -15.9 °C 0.1 °F /  -17.7 °C 1027.0 in /  34774.2 hPa NE 1.6 mph /  2.6 km/h 3.2 mph /  5.1 km/h 79 % 0.0 in /  0 mm
22:27 7.9 °F /  -13.4 °C 3.2 °F /  -16 °C 1030.0 in /  34875.8 hPa Calm     72 % 0.0 in /  0 mm
22:32 7.9 °F /  -13.4 °C 3.3 °F /  -15.9 °C 1030.0 in /  34875.8 hPa Calm     73 % 0.0 in /  0 mm
22:35 3.3 °F /  -15.9 °C 0.0 °F /  -17.8 °C 1027.0 in /  34774.2 hPa Calm   1.6 mph /  2.6 km/h 79 % 0.0 in /  0 mm
22:37 7.7 °F /  -13.5 °C 3.2 °F /  -16 °C 1030.0 in /  34875.8 hPa Calm     73 % 0.0 in /  0 mm
22:42 7.6 °F /  -13.6 °C 3.1 °F /  -16.1 °C 1030.0 in /  34875.8 hPa Calm     73 % 0.0 in /  0 mm
22:45 3.1 °F /  -16.1 °C -0.2 °F /  -17.9 °C 1027.0 in /  34774.2 hPa Calm     79 % 0.0 in /  0 mm
22:47 7.5 °F /  -13.6 °C 3.2 °F /  -16 °C 1029.0 in /  34841.9 hPa NE 1.9 mph /  3.1 km/h   74 % 0.0 in /  0 mm
22:52 7.4 °F /  -13.7 °C 3.1 °F /  -16.1 °C 1029.0 in /  34841.9 hPa Calm     74 % 0.0 in /  0 mm
22:55 3.0 °F /  -16.1 °C -0.3 °F /  -17.9 °C 1027.0 in /  34774.2 hPa Calm     79 % 0.0 in /  0 mm
22:57 7.3 °F /  -13.7 °C 2.9 °F /  -16.2 °C 1029.0 in /  34841.9 hPa Calm     74 % 0.0 in /  0 mm
23:02 7.1 °F /  -13.8 °C 2.8 °F /  -16.2 °C 1030.0 in /  34875.8 hPa NE 1.9 mph /  3.1 km/h 1.9 mph /  3.1 km/h 74 % 0.0 in /  0 mm
23:05 2.9 °F /  -16.2 °C -0.4 °F /  -18 °C 1027.0 in /  34774.2 hPa Calm     79 % 0.0 in /  0 mm
23:07 7.1 °F /  -13.8 °C 2.8 °F /  -16.2 °C 1030.0 in /  34875.8 hPa Calm     74 % 0.0 in /  0 mm
23:12 7.0 °F /  -13.9 °C 2.9 °F /  -16.2 °C 1030.0 in /  34875.8 hPa Calm     75 % 0.0 in /  0 mm
23:15 3.0 °F /  -16.1 °C -0.3 °F /  -17.9 °C 1027.0 in /  34774.2 hPa Calm     79 % 0.0 in /  0 mm
23:17 6.8 °F /  -14 °C 2.7 °F /  -16.3 °C 1030.0 in /  34875.8 hPa Calm     75 % 0.0 in /  0 mm
23:22 6.7 °F /  -14.1 °C 2.4 °F /  -16.4 °C 1030.0 in /  34875.8 hPa Calm     74 % 0.0 in /  0 mm
23:25 2.8 °F /  -16.2 °C -0.5 °F /  -18.1 °C 1027.0 in /  34774.2 hPa Calm     79 % 0.0 in /  0 mm
23:27 6.5 °F /  -14.2 °C 2.2 °F /  -16.6 °C 1030.0 in /  34875.8 hPa Calm     74 % 0.0 in /  0 mm
23:32 6.5 °F /  -14.2 °C 2.4 °F /  -16.4 °C 1030.0 in /  34875.8 hPa Calm     75 % 0.0 in /  0 mm
23:35 2.9 °F /  -16.2 °C -0.2 °F /  -17.9 °C 1026.0 in /  34740.4 hPa Calm     80 % 0.0 in /  0 mm
23:37 6.5 °F /  -14.2 °C 2.4 °F /  -16.4 °C 1030.0 in /  34875.8 hPa Calm     75 % 0.0 in /  0 mm
23:42 6.5 °F /  -14.2 °C 2.6 °F /  -16.3 °C 1030.0 in /  34875.8 hPa Calm     76 % 0.0 in /  0 mm
23:45 3.0 °F /  -16.1 °C -0.3 °F /  -17.9 °C 1026.0 in /  34740.4 hPa NE 1.6 mph /  2.6 km/h 3.2 mph /  5.1 km/h 79 % 0.0 in /  0 mm
23:47 6.5 °F /  -14.2 °C 2.6 °F /  -16.3 °C 1030.0 in /  34875.8 hPa Calm     76 % 0.0 in /  0 mm
23:52 6.3 °F /  -14.3 °C 2.4 °F /  -16.4 °C 1030.0 in /  34875.8 hPa Calm     76 % 0.0 in /  0 mm
23:55 2.9 °F /  -16.2 °C -0.4 °F /  -18 °C 1027.0 in /  34774.2 hPa Calm   1.6 mph /  2.6 km/h 79 % 0.0 in /  0 mm
23:57 6.2 °F /  -14.3 °C 2.3 °F /  -16.5 °C 1030.0 in /  34875.8 hPa NE 3.7 mph /  6 km/h 3.7 mph /  6 km/h 76 % 0.0 in /  0 mm
Meteo Sesrovires
Elogis d' Weather Underground - 1.5 mb

Guio original per  Jim McMurry - jmcmurry@mwt.net Adaptat per a la plantilla per  Wim van der Kuil - Leuven-Template.eu

Trobareu la nostra informacio del temps tambe a:

Weather Underground

AWEKAS